createdAt,value
2018-12-15T00:02:03.528Z,31.80
2018-12-15T00:04:29.577Z,30.57
2018-12-15T00:06:55.587Z,25.43
2018-12-15T00:09:21.549Z,29.57
2018-12-15T00:11:54.661Z,28.03
2018-12-15T00:14:20.619Z,27.33
2018-12-15T00:16:46.663Z,31.67
2018-12-15T00:19:12.684Z,28.90
2018-12-15T00:21:38.901Z,28.37
2018-12-15T00:24:04.887Z,28.63
2018-12-15T00:26:30.915Z,26.83
2018-12-15T00:28:57.173Z,30.90
2018-12-15T00:31:23.151Z,32.20
2018-12-15T00:33:49.152Z,29.47
2018-12-15T00:36:15.114Z,30.97
2018-12-15T00:38:41.168Z,28.57
2018-12-15T00:41:07.125Z,32.17
2018-12-15T00:43:33.094Z,26.70
2018-12-15T00:45:59.096Z,28.77
2018-12-15T00:48:25.040Z,28.17
2018-12-15T00:50:51.045Z,28.00
2018-12-15T00:53:17.462Z,33.97
2018-12-15T00:55:43.460Z,29.50
2018-12-15T00:58:09.511Z,34.03
2018-12-15T01:00:35.626Z,32.00
2018-12-15T01:03:01.681Z,32.33
2018-12-15T01:05:27.685Z,29.83
2018-12-15T01:07:53.695Z,29.17
2018-12-15T01:10:19.741Z,29.97
2018-12-15T01:12:45.753Z,32.80
2018-12-15T01:15:11.725Z,30.40
2018-12-15T01:17:37.688Z,32.03
2018-12-15T01:20:04.375Z,31.77
2018-12-15T01:22:30.507Z,34.43
2018-12-15T01:24:56.538Z,35.57
2018-12-15T01:27:22.552Z,31.83
2018-12-15T01:29:49.243Z,31.83
2018-12-15T01:32:15.230Z,32.83
2018-12-15T01:34:41.237Z,34.07
2018-12-15T01:37:07.202Z,34.43
2018-12-15T01:39:33.205Z,36.50
2018-12-15T01:41:59.177Z,36.20
2018-12-15T01:44:25.226Z,34.00
2018-12-15T01:46:51.288Z,30.63
2018-12-15T01:49:17.273Z,33.30
2018-12-15T01:51:43.273Z,39.37
2018-12-15T01:54:09.249Z,33.93
2018-12-15T01:56:35.231Z,33.13
2018-12-15T01:59:01.261Z,34.70
2018-12-15T02:01:27.203Z,34.47
2018-12-15T02:03:53.165Z,34.83
2018-12-15T02:06:19.292Z,34.13
2018-12-15T02:08:45.261Z,37.23
2018-12-15T02:11:11.276Z,35.77
2018-12-15T02:13:37.262Z,34.37
2018-12-15T02:16:03.209Z,36.30
2018-12-15T02:18:29.211Z,33.20
2018-12-15T02:20:55.263Z,36.97
2018-12-15T02:23:21.208Z,34.13
2018-12-15T02:25:47.220Z,37.20
2018-12-15T02:28:13.310Z,32.43
2018-12-15T02:30:39.308Z,35.23
2018-12-15T02:33:05.312Z,35.43
2018-12-15T02:35:31.543Z,34.07
2018-12-15T02:37:57.563Z,39.83
2018-12-15T02:40:23.548Z,37.83
2018-12-15T02:42:49.662Z,36.53
2018-12-15T02:45:15.651Z,33.23
2018-12-15T02:47:42.123Z,35.80
2018-12-15T02:50:08.257Z,36.50
2018-12-15T02:52:34.218Z,36.73
2018-12-15T02:55:00.204Z,35.60
2018-12-15T02:57:26.304Z,37.17
2018-12-15T02:59:52.300Z,35.87
2018-12-15T03:02:18.281Z,39.57
2018-12-15T03:04:44.278Z,62.40
2018-12-15T03:07:10.244Z,58.13
2018-12-15T03:09:36.350Z,64.33
2018-12-15T03:12:02.307Z,52.70
2018-12-15T03:14:28.299Z,44.60
2018-12-15T03:17:02.502Z,43.57
2018-12-15T03:19:28.536Z,39.50
2018-12-15T03:21:54.488Z,39.67
2018-12-15T03:24:20.505Z,36.63
2018-12-15T03:26:51.284Z,38.70
2018-12-15T03:29:17.501Z,36.63
2018-12-15T03:31:43.490Z,39.47
2018-12-15T03:34:09.433Z,40.53
2018-12-15T03:36:35.452Z,39.17
2018-12-15T03:39:01.460Z,39.43
2018-12-15T03:41:27.435Z,40.83
2018-12-15T03:43:53.560Z,40.23
2018-12-15T03:46:19.510Z,40.30
2018-12-15T03:48:45.496Z,41.93
2018-12-15T03:51:11.448Z,38.73
2018-12-15T03:53:37.444Z,44.93
2018-12-15T03:56:03.928Z,38.13
2018-12-15T03:58:30.029Z,39.30
2018-12-15T04:00:55.994Z,36.27
2018-12-15T04:03:22.001Z,36.63
2018-12-15T04:05:47.960Z,39.57
2018-12-15T04:08:13.965Z,36.90
2018-12-15T04:10:39.968Z,39.60
2018-12-15T04:13:05.982Z,35.13
2018-12-15T04:15:31.967Z,35.97
2018-12-15T04:18:03.724Z,36.83
2018-12-15T04:20:25.969Z,37.83
2018-12-15T04:22:51.949Z,35.10
2018-12-15T04:25:17.958Z,36.63
2018-12-15T04:27:44.045Z,36.77
2018-12-15T04:30:10.037Z,35.87
2018-12-15T04:32:36.020Z,30.87
2018-12-15T04:35:02.159Z,36.40
2018-12-15T04:37:28.117Z,33.57
2018-12-15T04:39:54.108Z,32.23
2018-12-15T04:42:20.057Z,33.97
2018-12-15T04:44:46.038Z,34.43
2018-12-15T04:47:12.520Z,32.53
2018-12-15T04:49:38.585Z,31.73
2018-12-15T04:52:11.634Z,29.90
2018-12-15T04:54:37.615Z,33.40
2018-12-15T04:57:03.673Z,34.60
2018-12-15T04:59:30.377Z,35.60
2018-12-15T05:01:56.463Z,34.00
2018-12-15T05:04:22.445Z,32.37
2018-12-15T05:06:48.449Z,34.37
2018-12-15T05:09:14.421Z,31.67
2018-12-15T05:11:40.509Z,30.93
2018-12-15T05:14:06.481Z,34.57
2018-12-15T05:16:32.490Z,31.90
2018-12-15T05:18:58.485Z,32.57
2018-12-15T05:21:24.550Z,33.73
2018-12-15T05:23:50.520Z,31.23
2018-12-15T05:26:16.492Z,30.13
2018-12-15T05:28:43.049Z,31.93
2018-12-15T05:31:09.415Z,32.53
2018-12-15T05:33:35.729Z,35.03
2018-12-15T05:36:02.073Z,32.07
2018-12-15T05:38:28.136Z,30.63
2018-12-15T05:40:54.160Z,32.63
2018-12-15T05:43:20.795Z,28.07
2018-12-15T05:45:46.786Z,28.97
2018-12-15T05:48:12.762Z,31.43
2018-12-15T05:50:38.755Z,30.83
2018-12-15T05:53:04.721Z,28.53
2018-12-15T05:55:30.732Z,28.13
2018-12-15T05:57:56.767Z,29.53
2018-12-15T06:00:22.894Z,28.03
2018-12-15T06:02:48.981Z,31.90
2018-12-15T06:05:15.132Z,26.80
2018-12-15T06:07:41.145Z,29.47
2018-12-15T06:10:07.144Z,27.77
2018-12-15T06:12:33.129Z,28.83
2018-12-15T06:14:59.122Z,29.17
2018-12-15T06:17:25.139Z,27.83
2018-12-15T06:19:58.094Z,26.27
2018-12-15T06:22:24.086Z,24.57
2018-12-15T06:24:50.059Z,28.77
2018-12-15T06:27:16.084Z,27.60
2018-12-15T06:29:42.046Z,26.60
2018-12-15T06:32:08.048Z,24.37
2018-12-15T06:34:41.076Z,24.57
2018-12-15T06:37:07.068Z,26.43
2018-12-15T06:39:33.028Z,25.57
2018-12-15T06:41:58.988Z,24.67
2018-12-15T06:44:25.000Z,23.07
2018-12-15T06:46:50.978Z,23.33
2018-12-15T06:49:16.973Z,26.50
2018-12-15T06:51:42.932Z,23.30
2018-12-15T06:54:08.922Z,25.10
2018-12-15T06:56:34.876Z,26.47
2018-12-15T06:59:00.944Z,45.77
2018-12-15T07:01:27.376Z,41.27
2018-12-15T07:03:53.354Z,28.73
2018-12-15T07:06:19.360Z,24.97
2018-12-15T07:08:45.433Z,28.23
2018-12-15T07:11:11.702Z,27.80
2018-12-15T07:13:37.687Z,23.70
2018-12-15T07:16:03.685Z,21.53
2018-12-15T07:18:29.727Z,24.13
2018-12-15T07:21:02.724Z,20.20
2018-12-15T07:23:28.875Z,22.20
2018-12-15T07:25:55.179Z,22.43
2018-12-15T07:28:21.348Z,21.43
2018-12-15T07:30:47.366Z,23.10
2018-12-15T07:33:13.327Z,22.67
2018-12-15T07:35:39.342Z,21.63
2018-12-15T07:38:05.328Z,22.97
2018-12-15T07:40:31.397Z,23.83
2018-12-15T07:42:57.352Z,20.80
2018-12-15T07:45:23.323Z,23.57
2018-12-15T07:47:49.303Z,20.60
2018-12-15T07:50:15.307Z,20.43
2018-12-15T07:52:44.609Z,20.07
2018-12-15T07:55:10.803Z,23.73
2018-12-15T07:57:36.787Z,21.90
2018-12-15T08:00:05.178Z,22.23
2018-12-15T08:02:31.131Z,22.20
2018-12-15T08:04:57.158Z,20.60
2018-12-15T08:07:23.147Z,22.30
2018-12-15T08:09:50.336Z,20.97
2018-12-15T08:12:22.392Z,21.97
2018-12-15T08:14:48.404Z,22.27
2018-12-15T08:17:14.362Z,21.60
2018-12-15T08:19:40.410Z,22.27
2018-12-15T08:22:06.384Z,21.20
2018-12-15T08:24:32.419Z,20.77
2018-12-15T08:26:58.497Z,20.43
2018-12-15T08:29:24.480Z,19.73
2018-12-15T08:31:50.472Z,22.47
2018-12-15T08:34:16.478Z,19.90
2018-12-15T08:36:42.479Z,22.23
2018-12-15T08:39:08.459Z,23.47
2018-12-15T08:41:34.464Z,22.17
2018-12-15T08:44:00.629Z,22.17
2018-12-15T08:46:26.638Z,22.20
2018-12-15T08:48:52.624Z,23.40
2018-12-15T08:51:18.754Z,23.73
2018-12-15T08:53:44.756Z,20.63
2018-12-15T08:56:10.820Z,18.50
2018-12-15T08:58:36.890Z,19.53
2018-12-15T09:01:02.960Z,21.83
2018-12-15T09:03:28.912Z,22.70
2018-12-15T09:05:54.902Z,19.77
2018-12-15T09:08:20.880Z,22.47
2018-12-15T09:10:46.886Z,22.73
2018-12-15T09:13:12.980Z,20.93
2018-12-15T09:15:38.986Z,22.80
2018-12-15T09:18:05.073Z,22.60
2018-12-15T09:20:31.154Z,21.20
2018-12-15T09:22:57.154Z,22.20
2018-12-15T09:25:23.113Z,25.43
2018-12-15T09:27:49.139Z,23.67
2018-12-15T09:30:15.101Z,21.53
2018-12-15T09:32:41.129Z,22.57
2018-12-15T09:35:07.106Z,21.70
2018-12-15T09:37:33.089Z,23.10
2018-12-15T09:39:59.058Z,24.27
2018-12-15T09:42:25.051Z,23.87
2018-12-15T09:44:51.054Z,22.80
2018-12-15T09:47:17.009Z,23.97
2018-12-15T09:49:43.018Z,28.63
2018-12-15T09:52:08.991Z,24.97
2018-12-15T09:54:34.974Z,25.90
2018-12-15T09:57:01.056Z,27.23
2018-12-15T09:59:27.120Z,27.80
2018-12-15T10:01:53.130Z,23.73
2018-12-15T10:04:19.118Z,25.63
2018-12-15T10:06:45.082Z,26.80
2018-12-15T10:09:11.083Z,24.60
2018-12-15T10:11:37.059Z,26.57
2018-12-15T10:14:03.055Z,25.57
2018-12-15T10:16:29.019Z,25.63
2018-12-15T10:18:55.039Z,26.97
2018-12-15T10:21:21.049Z,26.83
2018-12-15T10:23:47.091Z,26.43
2018-12-15T10:26:13.079Z,26.63
2018-12-15T10:28:39.049Z,26.40
2018-12-15T10:31:11.127Z,25.90
2018-12-15T10:33:37.179Z,26.73
2018-12-15T10:36:03.182Z,26.90
2018-12-15T10:38:29.144Z,25.30
2018-12-15T10:40:55.164Z,28.47
2018-12-15T10:43:21.696Z,29.10
2018-12-15T10:45:47.770Z,24.83
2018-12-15T10:48:13.721Z,27.80
2018-12-15T10:50:39.722Z,27.10
2018-12-15T10:53:05.695Z,28.10
2018-12-15T10:55:31.708Z,26.90
2018-12-15T10:57:57.730Z,24.17
2018-12-15T11:00:25.776Z,24.67
2018-12-15T11:02:51.796Z,28.80
2018-12-15T11:05:17.878Z,25.17
2018-12-15T11:07:43.843Z,26.90
2018-12-15T11:10:09.824Z,25.57
2018-12-15T11:12:35.789Z,28.47
2018-12-15T11:15:01.803Z,26.87
2018-12-15T11:17:27.868Z,22.77
2018-12-15T11:19:53.820Z,25.30
2018-12-15T11:22:20.305Z,24.27
2018-12-15T11:24:46.273Z,24.00
2018-12-15T11:27:12.393Z,23.47
2018-12-15T11:29:38.423Z,21.47
2018-12-15T11:32:04.421Z,23.57
2018-12-15T11:34:31.422Z,22.87
2018-12-15T11:36:57.488Z,20.93
2018-12-15T11:39:23.547Z,20.20
2018-12-15T11:41:49.522Z,21.07
2018-12-15T11:44:15.534Z,19.70
2018-12-15T11:46:41.540Z,22.50
2018-12-15T11:49:07.516Z,19.53
2018-12-15T11:51:33.542Z,18.50
2018-12-15T11:53:59.518Z,19.17
2018-12-15T11:56:25.524Z,21.33
2018-12-15T11:58:51.581Z,18.77
2018-12-15T12:01:17.656Z,20.37
2018-12-15T12:03:43.659Z,19.33
2018-12-15T12:06:09.704Z,18.77
2018-12-15T12:08:35.694Z,18.00
2018-12-15T12:11:01.674Z,20.60
2018-12-15T12:13:27.707Z,20.13
2018-12-15T12:15:53.659Z,19.57
2018-12-15T12:18:19.641Z,19.30
2018-12-15T12:20:45.637Z,17.57
2018-12-15T12:23:11.586Z,18.70
2018-12-15T12:25:37.571Z,17.43
2018-12-15T12:28:03.530Z,20.73
2018-12-15T12:30:29.545Z,15.30
2018-12-15T12:32:55.548Z,17.87
2018-12-15T12:35:21.505Z,18.10
2018-12-15T12:37:47.499Z,18.53
2018-12-15T12:40:13.483Z,18.80
2018-12-15T12:42:39.543Z,19.47
2018-12-15T12:45:05.587Z,17.77
2018-12-15T12:47:31.627Z,19.37
2018-12-15T12:49:57.611Z,17.07
2018-12-15T12:52:23.583Z,19.87
2018-12-15T12:54:49.607Z,18.67
2018-12-15T12:57:15.684Z,19.07
2018-12-15T12:59:41.644Z,17.33
2018-12-15T13:02:07.707Z,18.10
2018-12-15T13:04:33.802Z,15.80
2018-12-15T13:06:59.789Z,14.77
2018-12-15T13:09:26.400Z,15.03
2018-12-15T13:11:52.428Z,15.30
2018-12-15T13:14:18.958Z,14.90
2018-12-15T13:16:44.973Z,17.37
2018-12-15T13:19:10.936Z,18.17
2018-12-15T13:21:36.969Z,16.17
2018-12-15T13:24:03.092Z,17.10
2018-12-15T13:26:29.110Z,18.07
2018-12-15T13:28:55.161Z,18.20
2018-12-15T13:31:21.141Z,16.63
2018-12-15T13:33:47.152Z,15.43
2018-12-15T13:36:13.779Z,14.20
2018-12-15T13:38:39.914Z,16.23
2018-12-15T13:41:06.567Z,17.73
2018-12-15T13:43:32.639Z,18.50
2018-12-15T13:46:05.837Z,15.67
2018-12-15T13:48:31.863Z,16.30
2018-12-15T13:50:57.841Z,17.17
2018-12-15T13:53:23.924Z,13.03
2018-12-15T13:55:49.885Z,12.17
2018-12-15T13:58:15.983Z,15.40
2018-12-15T14:00:41.948Z,13.00
2018-12-15T14:03:07.981Z,13.03
2018-12-15T14:05:36.422Z,9.87
2018-12-15T14:08:02.501Z,11.40
2018-12-15T14:10:28.523Z,12.50
2018-12-15T14:12:54.619Z,10.93
2018-12-15T14:15:20.577Z,11.83
2018-12-15T14:17:46.580Z,11.90
2018-12-15T14:20:16.690Z,11.30
2018-12-15T14:22:40.716Z,12.33
2018-12-15T14:25:06.687Z,12.53
2018-12-15T14:27:32.765Z,13.43
2018-12-15T14:29:58.723Z,11.47
2018-12-15T14:32:24.747Z,14.77
2018-12-15T14:34:50.708Z,13.20
2018-12-15T14:37:16.717Z,11.23
2018-12-15T14:39:42.679Z,14.53
2018-12-15T14:42:08.671Z,14.83
2018-12-15T14:44:34.755Z,13.40
2018-12-15T14:47:00.700Z,12.87
2018-12-15T14:49:26.812Z,18.07
2018-12-15T14:51:52.780Z,19.30
2018-12-15T14:54:18.786Z,18.90
2018-12-15T14:56:44.799Z,19.20
2018-12-15T14:59:10.823Z,21.07
2018-12-15T15:01:36.792Z,21.97
2018-12-15T15:04:02.816Z,23.17
2018-12-15T15:06:28.802Z,23.13
2018-12-15T15:08:54.814Z,26.03
2018-12-15T15:11:20.760Z,25.20
2018-12-15T15:13:46.838Z,28.10
2018-12-15T15:16:12.796Z,27.00
2018-12-15T15:18:38.864Z,26.47
2018-12-15T15:21:04.866Z,28.60
2018-12-15T15:23:30.867Z,26.33
2018-12-15T15:25:56.814Z,25.23
2018-12-15T15:28:22.848Z,24.20
2018-12-15T15:30:48.805Z,26.90
2018-12-15T15:33:14.816Z,26.63
2018-12-15T15:35:40.780Z,28.33
2018-12-15T15:38:06.759Z,30.70
2018-12-15T15:40:32.759Z,26.13
2018-12-15T15:42:58.733Z,24.50
2018-12-15T15:45:24.758Z,25.93
2018-12-15T15:47:50.718Z,27.33
2018-12-15T15:50:16.701Z,26.03
2018-12-15T15:52:42.655Z,25.60
2018-12-15T15:55:08.681Z,24.77
2018-12-15T15:57:34.627Z,23.80
2018-12-15T16:00:00.899Z,25.43
2018-12-15T16:02:26.873Z,25.23
2018-12-15T16:04:52.921Z,25.10
2018-12-15T16:07:18.935Z,27.10
2018-12-15T16:09:45.200Z,25.17
2018-12-15T16:12:11.317Z,27.17
2018-12-15T16:14:37.305Z,25.43
2018-12-15T16:17:03.311Z,22.90
2018-12-15T16:19:29.271Z,21.70
2018-12-15T16:21:55.353Z,25.73
2018-12-15T16:24:28.241Z,24.33
2018-12-15T16:26:54.324Z,21.83
2018-12-15T16:29:20.308Z,23.93
2018-12-15T16:31:46.278Z,22.07
2018-12-15T16:34:12.272Z,22.33
2018-12-15T16:36:38.275Z,24.13
2018-12-15T16:39:05.556Z,22.53
2018-12-15T16:41:31.578Z,21.03
2018-12-15T16:43:57.560Z,23.53
2018-12-15T16:46:23.570Z,23.63
2018-12-15T16:48:49.558Z,21.83
2018-12-15T16:51:15.589Z,21.70
2018-12-15T16:53:41.553Z,22.97
2018-12-15T16:56:14.591Z,24.20
2018-12-15T16:58:40.649Z,23.83
2018-12-15T17:01:06.800Z,23.47
2018-12-15T17:03:32.793Z,24.53
2018-12-15T17:05:58.752Z,21.30
2018-12-15T17:08:24.744Z,25.30
2018-12-15T17:10:50.755Z,24.13
2018-12-15T17:13:16.809Z,26.37
2018-12-15T17:15:42.817Z,24.43
2018-12-15T17:18:08.815Z,25.17
2018-12-15T17:20:34.815Z,22.57
2018-12-15T17:23:00.893Z,24.10
2018-12-15T17:25:26.925Z,25.23
2018-12-15T17:27:52.905Z,26.13
2018-12-15T17:30:18.907Z,26.83
2018-12-15T17:32:44.960Z,24.17
2018-12-15T17:35:10.985Z,24.23
2018-12-15T17:37:36.967Z,25.27
2018-12-15T17:40:05.093Z,24.47
2018-12-15T17:42:31.115Z,24.80
2018-12-15T17:44:57.172Z,24.70
2018-12-15T17:47:23.184Z,23.80
2018-12-15T17:49:49.144Z,27.87
2018-12-15T17:52:15.379Z,25.87
2018-12-15T17:54:41.392Z,25.87
2018-12-15T17:57:08.079Z,31.83
2018-12-15T17:59:34.112Z,28.67
2018-12-15T18:02:00.292Z,29.07
2018-12-15T18:04:26.278Z,28.63
2018-12-15T18:06:52.277Z,25.43
2018-12-15T18:09:18.233Z,25.23
2018-12-15T18:11:44.232Z,24.60
2018-12-15T18:14:10.328Z,26.47
2018-12-15T18:16:36.306Z,20.77
2018-12-15T18:19:02.290Z,24.50
2018-12-15T18:21:28.289Z,23.77
2018-12-15T18:23:54.280Z,23.27
2018-12-15T18:26:20.376Z,22.17
2018-12-15T18:28:46.357Z,26.27
2018-12-15T18:31:12.367Z,23.03
2018-12-15T18:33:38.341Z,28.33
2018-12-15T18:36:04.369Z,26.20
2018-12-15T18:38:30.850Z,26.13
2018-12-15T18:40:56.843Z,34.83
2018-12-15T18:43:22.893Z,27.30
2018-12-15T18:45:49.129Z,24.37
2018-12-15T18:48:15.152Z,21.27
2018-12-15T18:50:48.075Z,22.50
2018-12-15T18:53:14.125Z,18.67
2018-12-15T18:55:40.106Z,18.30
2018-12-15T18:58:08.223Z,17.27
2018-12-15T19:00:34.189Z,19.70
2018-12-15T19:03:00.192Z,17.53
2018-12-15T19:05:26.184Z,18.20
2018-12-15T19:07:52.334Z,19.93
2018-12-15T19:10:18.310Z,17.20
2018-12-15T19:12:44.326Z,16.47
2018-12-15T19:15:10.418Z,24.73
2018-12-15T19:17:36.484Z,20.13
2018-12-15T19:20:03.104Z,18.23
2018-12-15T19:22:29.174Z,17.97
2018-12-15T19:24:59.242Z,18.50
2018-12-15T19:27:25.493Z,17.87
2018-12-15T19:29:51.690Z,22.10
2018-12-15T19:32:17.690Z,18.57
2018-12-15T19:34:43.670Z,18.87
2018-12-15T19:37:09.780Z,21.10
2018-12-15T19:39:35.796Z,20.03
2018-12-15T19:42:01.768Z,23.30
2018-12-15T19:44:27.794Z,22.13
2018-12-15T19:46:53.804Z,20.13
2018-12-15T19:49:19.796Z,20.07
2018-12-15T19:51:45.797Z,18.97
2018-12-15T19:54:11.929Z,21.47
2018-12-15T19:56:37.921Z,21.43
2018-12-15T19:59:03.895Z,22.10
2018-12-15T20:01:29.914Z,22.90
2018-12-15T20:03:55.945Z,22.87
2018-12-15T20:06:21.950Z,23.77
2018-12-15T20:08:49.051Z,21.23
2018-12-15T20:11:15.073Z,22.80
2018-12-15T20:13:41.075Z,23.37
2018-12-15T20:16:07.093Z,22.40
2018-12-15T20:18:34.812Z,21.87
2018-12-15T20:21:00.822Z,22.83
2018-12-15T20:23:26.835Z,22.17
2018-12-15T20:25:52.927Z,22.07
2018-12-15T20:28:18.937Z,22.93
2018-12-15T20:30:44.912Z,22.70
2018-12-15T20:33:10.931Z,20.60
2018-12-15T20:35:36.894Z,23.60
2018-12-15T20:38:03.004Z,20.50
2018-12-15T20:40:28.989Z,23.10
2018-12-15T20:42:55.022Z,25.13
2018-12-15T20:45:21.038Z,22.03
2018-12-15T20:47:47.111Z,20.80
2018-12-15T20:50:13.079Z,20.10
2018-12-15T20:52:39.087Z,19.10
2018-12-15T20:55:05.413Z,21.80
2018-12-15T20:57:31.535Z,22.50
2018-12-15T20:59:57.626Z,22.87
2018-12-15T21:02:23.712Z,21.13
2018-12-15T21:04:49.690Z,22.17
2018-12-15T21:07:15.646Z,24.00
2018-12-15T21:09:41.801Z,23.17
2018-12-15T21:12:07.953Z,24.07
2018-12-15T21:14:40.989Z,22.30
2018-12-15T21:17:07.100Z,23.27
2018-12-15T21:19:33.125Z,21.90
2018-12-15T21:21:59.133Z,22.97
2018-12-15T21:24:32.053Z,20.93
2018-12-15T21:26:58.023Z,22.10
2018-12-15T21:29:24.054Z,23.40
2018-12-15T21:31:56.434Z,23.20
2018-12-15T21:34:18.133Z,22.33
2018-12-15T21:36:44.151Z,24.47
2018-12-15T21:39:10.118Z,23.97
2018-12-15T21:41:36.132Z,27.97
2018-12-15T21:44:02.111Z,25.33
2018-12-15T21:46:28.117Z,28.30
2018-12-15T21:48:54.094Z,25.93
2018-12-15T21:51:20.075Z,23.83
2018-12-15T21:53:46.071Z,25.00
2018-12-15T21:56:12.136Z,25.10
2018-12-15T21:58:38.166Z,24.00
2018-12-15T22:01:11.035Z,24.23
2018-12-15T22:03:37.044Z,23.33
2018-12-15T22:06:03.042Z,22.37
2018-12-15T22:08:29.015Z,24.17
2018-12-15T22:10:54.964Z,21.67
2018-12-15T22:13:21.776Z,23.30
2018-12-15T22:15:47.855Z,23.00
2018-12-15T22:18:13.863Z,23.03
2018-12-15T22:20:40.164Z,24.77
2018-12-15T22:23:06.221Z,21.97
2018-12-15T22:25:32.164Z,23.83
2018-12-15T22:27:58.172Z,24.03
2018-12-15T22:30:24.130Z,26.43
2018-12-15T22:32:50.163Z,25.63
2018-12-15T22:35:16.188Z,30.47
2018-12-15T22:37:42.166Z,27.63
2018-12-15T22:40:08.201Z,26.20
2018-12-15T22:42:34.201Z,28.00
2018-12-15T22:45:00.144Z,29.07
2018-12-15T22:47:26.808Z,26.70
2018-12-15T22:49:52.776Z,29.37
2018-12-15T22:52:18.761Z,30.30
2018-12-15T22:54:44.738Z,27.57
2018-12-15T22:57:10.935Z,30.80
2018-12-15T22:59:37.023Z,27.90
2018-12-15T23:02:03.024Z,27.30
2018-12-15T23:04:29.086Z,28.57
2018-12-15T23:06:55.073Z,30.07
2018-12-15T23:09:21.065Z,31.20
2018-12-15T23:11:47.023Z,32.37
2018-12-15T23:14:13.047Z,29.33
2018-12-15T23:16:39.026Z,32.10
2018-12-15T23:19:05.209Z,28.60
2018-12-15T23:21:31.365Z,30.27
2018-12-15T23:23:57.373Z,29.27
2018-12-15T23:26:23.359Z,28.43
2018-12-15T23:28:49.311Z,26.57
2018-12-15T23:31:15.383Z,25.80
2018-12-15T23:33:41.369Z,27.10
2018-12-15T23:36:07.373Z,26.60
2018-12-15T23:38:33.449Z,26.47
2018-12-15T23:40:59.449Z,24.67
2018-12-15T23:43:25.417Z,29.17
2018-12-15T23:45:51.414Z,25.20
2018-12-15T23:48:17.941Z,25.47
2018-12-15T23:50:43.945Z,24.63
2018-12-15T23:53:09.953Z,25.20
2018-12-15T23:55:35.991Z,25.57
2018-12-15T23:58:01.980Z,25.57
